Time;durP1;ratioP1;P1;durP2;ratioP2;P2;SDS_P1;SDS_P2;PMS_P1;PMS_P2;Temp;Humidity;BMP_temperature;BMP_pressure;BME280_temperature;BME280_humidity;BME280_pressure;Samples;Min_cycle;Max_cycle;Signal;HPM_P1;HPM_P2
2023/10/09 00:11:38;;;;;;;2.42;2.20;;;;;;;22.29;47.96;101324.44;41674296;28;20050;-67
2023/10/09 00:31:38;;;;;;;4.10;2.25;;;;;;;22.25;47.74;101310.59;41696186;28;20077;-67
2023/10/09 00:51:56;;;;;;;3.05;2.47;;;;;;;22.25;47.93;101307.13;41715132;28;20126;-66
2023/10/09 01:32:00;;;;;;;2.60;1.95;;;;;;;22.17;47.58;101305.03;41692933;28;20048;-66
2023/10/09 01:52:09;;;;;;;2.65;2.13;;;;;;;22.18;47.20;101306.69;41682422;28;20065;-66
2023/10/09 02:12:09;;;;;;;2.03;1.58;;;;;;;22.17;47.73;101321.69;41688840;28;20049;-67
2023/10/09 02:32:16;;;;;;;2.53;1.70;;;;;;;22.15;47.42;101307.72;41693645;28;20044;-67
2023/10/09 02:52:25;;;;;;;2.38;1.92;;;;;;;21.99;47.47;101244.63;41689686;28;20040;-68
2023/10/09 03:12:28;;;;;;;2.30;1.60;;;;;;;22.10;47.36;101240.44;41687110;28;20125;-68
2023/10/09 03:32:29;;;;;;;6.22;1.55;;;;;;;22.01;47.47;101248.00;41672697;28;20120;-69
2023/10/09 03:52:30;;;;;;;2.45;1.67;;;;;;;22.04;47.19;101241.69;41674603;28;20045;-67
2023/10/09 04:12:33;;;;;;;4.05;1.60;;;;;;;22.13;47.38;101245.47;41654723;28;20041;-68
2023/10/09 04:32:34;;;;;;;5.93;2.17;;;;;;;22.22;47.87;101216.69;41645094;28;20078;-67
2023/10/09 05:12:46;;;;;;;13.27;3.10;;;;;;;21.64;43.75;101184.59;41666298;28;20045;-65
2023/10/09 05:32:48;;;;;;;20.08;4.93;;;;;;;21.97;44.91;101170.06;41699133;28;20048;-65
2023/10/09 06:13:03;;;;;;;76.05;13.85;;;;;;;21.80;45.57;101150.13;41689611;28;20041;-71
2023/10/09 06:33:19;;;;;;;48.45;12.13;;;;;;;21.81;45.64;101148.31;41687957;28;20528;-71
2023/10/09 06:53:20;;;;;;;48.42;11.30;;;;;;;21.79;45.67;101161.63;41688501;28;20098;-69
2023/10/09 07:13:24;;;;;;;36.22;10.50;;;;;;;21.61;45.82;101125.97;41684753;28;20108;-69
2023/10/09 07:33:33;;;;;;;40.58;9.60;;;;;;;21.53;45.79;101026.28;41731287;28;20962;-68
2023/10/09 07:53:43;;;;;;;30.98;9.95;;;;;;;21.78;45.96;101040.47;41708563;28;20123;-71
2023/10/09 08:13:49;;;;;;;28.08;10.88;;;;;;;21.60;46.01;100990.69;41703323;28;20483;-69
2023/10/09 08:33:58;;;;;;;;;;;;;;;21.83;45.86;100999.63;41713284;28;20049;-69
2023/10/09 08:53:59;;;;;;;26.80;11.27;;;;;;;21.82;45.64;100986.56;41753770;28;19920;-71
2023/10/09 09:14:07;;;;;;;8.00;2.88;;;;;;;19.43;33.68;100949.41;41754636;28;20072;-67
2023/10/09 09:34:13;;;;;;;25.75;7.32;;;;;;;21.70;40.75;100932.91;41751776;28;20561;-72
2023/10/09 09:54:15;;;;;;;14.63;6.57;;;;;;;21.89;41.72;100921.91;41775770;28;20049;-71
2023/10/09 10:14:28;;;;;;;16.75;8.05;;;;;;;22.14;43.32;100852.41;41776085;28;20053;-66
2023/10/09 10:34:57;;;;;;;32.15;9.40;;;;;;;22.04;44.05;100773.09;41760246;28;20041;-67
2023/10/09 10:55:56;;;;;;;37.50;10.07;;;;;;;22.38;44.06;100703.78;41714443;28;20056;-69
2023/10/09 11:15:46;;;;;;;26.23;8.77;;;;;;;22.53;44.94;100725.50;41674772;28;20041;-69
2023/10/09 11:35:56;;;;;;;16.30;7.80;;;;;;;22.60;44.57;100688.91;41693219;28;20036;-68
2023/10/09 11:55:58;;;;;;;17.90;8.25;;;;;;;22.79;44.90;100726.09;41686807;28;20454;-67
2023/10/09 12:16:00;;;;;;;19.60;7.65;;;;;;;22.62;45.05;100677.28;41690040;28;21085;-69
2023/10/09 12:36:00;;;;;;;13.73;4.95;;;;;;;22.49;39.39;100632.53;41731276;28;20041;-69
2023/10/09 12:56:00;;;;;;;31.42;10.88;;;;;;;22.33;43.43;100653.16;41743368;28;20068;-69
2023/10/09 13:16:01;;;;;;;34.95;10.18;;;;;;;22.21;44.30;100641.75;41761878;28;20068;-68
2023/10/09 13:36:01;;;;;;;29.55;8.98;;;;;;;22.13;45.02;100608.06;41725088;28;20037;-70
2023/10/09 13:56:02;;;;;;;57.70;16.63;;;;;;;22.28;44.56;100626.31;41710884;28;20041;-65
2023/10/09 14:16:03;;;;;;;65.55;19.83;;;;;;;22.00;45.42;100557.25;41736570;28;20048;-67
2023/10/09 14:36:05;;;;;;;66.22;17.27;;;;;;;22.07;45.42;100580.38;41738549;28;20386;-66
2023/10/09 14:56:09;;;;;;;59.15;15.88;;;;;;;22.11;45.01;100578.34;41687589;28;20069;-73
2023/10/09 15:16:10;;;;;;;43.15;12.88;;;;;;;22.21;45.49;100559.97;41656910;28;20056;-69
2023/10/09 15:36:14;;;;;;;37.67;12.98;;;;;;;22.11;45.94;100519.50;41699102;28;20050;-69
2023/10/09 15:56:16;;;;;;;45.10;12.68;;;;;;;22.37;46.56;100546.41;41692628;28;20048;-71
2023/10/09 16:16:27;;;;;;;30.88;10.98;;;;;;;22.26;47.38;100538.53;41715155;28;20057;-69
2023/10/09 16:36:27;;;;;;;27.92;10.23;;;;;;;22.22;47.50;100553.75;41696682;28;20045;-70
2023/10/09 16:56:33;;;;;;;28.77;8.77;;;;;;;22.09;47.44;100561.78;41690002;28;20125;-71
2023/10/09 17:16:33;;;;;;;20.88;8.15;;;;;;;21.98;47.50;100540.69;41739161;28;20160;-69
2023/10/09 17:36:35;;;;;;;21.42;7.93;;;;;;;22.10;47.04;100544.19;41672828;28;20625;-73
2023/10/09 17:56:38;;;;;;;19.45;8.15;;;;;;;22.54;50.98;100522.19;41629252;28;20106;-68
2023/10/09 18:16:41;;;;;;;25.52;11.57;;;;;;;22.86;54.55;100533.69;41644839;28;20076;-69
2023/10/09 18:36:42;;;;;;;31.92;12.70;;;;;;;22.83;54.02;100540.06;41664595;28;20093;-73
2023/10/09 18:56:43;;;;;;;27.35;11.15;;;;;;;22.52;53.45;100552.28;41689656;28;20112;-71
2023/10/09 19:16:46;;;;;;;28.02;10.52;;;;;;;22.65;52.66;100568.81;41679708;28;20069;-68
2023/10/09 19:36:48;;;;;;;21.83;9.63;;;;;;;22.64;52.28;100569.78;41680849;28;20060;-67
2023/10/09 19:56:49;;;;;;;21.20;8.35;;;;;;;22.56;51.63;100595.94;41653269;28;20049;-67
2023/10/09 20:16:49;;;;;;;17.27;7.65;;;;;;;22.42;50.64;100622.59;41669006;28;20513;-70
2023/10/09 20:36:55;;;;;;;17.95;7.32;;;;;;;22.21;52.80;100608.28;41658934;28;20079;-69
2023/10/09 20:56:55;;;;;;;15.50;7.07;;;;;;;22.14;53.09;100630.00;41693788;28;20049;-68
2023/10/09 21:16:56;;;;;;;10.95;6.07;;;;;;;22.12;52.67;100647.72;41694296;28;20045;-67
2023/10/09 21:36:56;;;;;;;12.07;5.30;;;;;;;22.07;52.15;100653.38;41698313;28;20037;-67
2023/10/09 21:56:57;;;;;;;7.88;5.03;;;;;;;22.06;52.06;100667.53;41685517;28;20552;-67
2023/10/09 22:16:59;;;;;;;6.47;4.47;;;;;;;21.99;52.08;100659.22;41675468;28;20079;-66
2023/10/09 22:37:03;;;;;;;8.93;4.43;;;;;;;21.94;52.24;100642.94;41693772;28;20040;-68
2023/10/09 22:57:05;;;;;;;7.68;4.10;;;;;;;22.01;51.90;100638.88;41685133;28;20095;-68
2023/10/09 23:17:17;;;;;;;7.15;3.90;;;;;;;21.90;52.06;100631.78;41679393;28;20073;-68
2023/10/09 23:57:57;;;;;;;5.25;3.40;;;;;;;21.90;51.56;100646.75;41680830;28;20080;-67
